sensor_id;sensor_type;location;lat;lon;timestamp;temperature;humidity
21759;DHT22;11041;50.854;20.580;2023-04-15T00:01:12;10.90;99.90
21759;DHT22;11041;50.854;20.580;2023-04-15T00:03:44;10.80;99.90
21759;DHT22;11041;50.854;20.580;2023-04-15T00:06:11;10.80;99.90
21759;DHT22;11041;50.854;20.580;2023-04-15T00:08:38;10.80;99.90
21759;DHT22;11041;50.854;20.580;2023-04-15T00:11:05;10.80;99.90
21759;DHT22;11041;50.854;20.580;2023-04-15T00:13:32;10.80;99.90
21759;DHT22;11041;50.854;20.580;2023-04-15T00:16:00;10.80;99.90
21759;DHT22;11041;50.854;20.580;2023-04-15T00:18:27;10.80;99.90
21759;DHT22;11041;50.854;20.580;2023-04-15T00:20:54;10.80;99.90
21759;DHT22;11041;50.854;20.580;2023-04-15T00:23:21;10.90;99.90
21759;DHT22;11041;50.854;20.580;2023-04-15T00:25:47;10.80;99.90
21759;DHT22;11041;50.854;20.580;2023-04-15T00:28:14;10.80;99.90
21759;DHT22;11041;50.854;20.580;2023-04-15T00:30:40;10.80;99.90
21759;DHT22;11041;50.854;20.580;2023-04-15T00:33:07;10.80;99.90
21759;DHT22;11041;50.854;20.580;2023-04-15T00:35:33;10.90;99.90
21759;DHT22;11041;50.854;20.580;2023-04-15T00:38:02;10.90;99.90
21759;DHT22;11041;50.854;20.580;2023-04-15T00:40:29;10.90;99.90
21759;DHT22;11041;50.854;20.580;2023-04-15T00:42:56;10.90;99.90
21759;DHT22;11041;50.854;20.580;2023-04-15T00:45:22;10.90;99.90
21759;DHT22;11041;50.854;20.580;2023-04-15T00:47:50;10.90;99.90
21759;DHT22;11041;50.854;20.580;2023-04-15T00:50:16;10.90;99.90
21759;DHT22;11041;50.854;20.580;2023-04-15T00:52:43;10.90;99.90
21759;DHT22;11041;50.854;20.580;2023-04-15T00:55:09;10.90;99.90
21759;DHT22;11041;50.854;20.580;2023-04-15T00:57:36;10.90;99.90
21759;DHT22;11041;50.854;20.580;2023-04-15T01:00:05;10.90;99.90
21759;DHT22;11041;50.854;20.580;2023-04-15T01:02:34;10.90;99.90
21759;DHT22;11041;50.854;20.580;2023-04-15T01:05:03;10.90;99.90
21759;DHT22;11041;50.854;20.580;2023-04-15T01:07:31;10.90;99.90
21759;DHT22;11041;50.854;20.580;2023-04-15T01:09:57;10.90;99.90
21759;DHT22;11041;50.854;20.580;2023-04-15T01:12:26;10.90;99.90
21759;DHT22;11041;50.854;20.580;2023-04-15T01:14:53;11.00;99.90
21759;DHT22;11041;50.854;20.580;2023-04-15T01:17:21;10.90;99.90
21759;DHT22;11041;50.854;20.580;2023-04-15T01:19:49;10.80;99.90
21759;DHT22;11041;50.854;20.580;2023-04-15T01:22:17;10.90;99.90
21759;DHT22;11041;50.854;20.580;2023-04-15T01:24:54;10.80;99.90
21759;DHT22;11041;50.854;20.580;2023-04-15T01:27:27;10.80;99.90
21759;DHT22;11041;50.854;20.580;2023-04-15T01:29:53;10.80;99.90
21759;DHT22;11041;50.854;20.580;2023-04-15T01:32:20;10.80;99.90
21759;DHT22;11041;50.854;20.580;2023-04-15T01:34:46;10.80;99.90
21759;DHT22;11041;50.854;20.580;2023-04-15T01:37:13;10.80;99.90
21759;DHT22;11041;50.854;20.580;2023-04-15T01:39:39;10.80;99.90
21759;DHT22;11041;50.854;20.580;2023-04-15T01:42:06;10.70;99.90
21759;DHT22;11041;50.854;20.580;2023-04-15T01:44:32;10.80;99.90
21759;DHT22;11041;50.854;20.580;2023-04-15T01:46:58;10.80;99.90
21759;DHT22;11041;50.854;20.580;2023-04-15T01:49:25;10.80;99.90
21759;DHT22;11041;50.854;20.580;2023-04-15T01:51:52;10.80;99.90
21759;DHT22;11041;50.854;20.580;2023-04-15T01:54:19;10.80;99.90
21759;DHT22;11041;50.854;20.580;2023-04-15T01:56:45;10.80;99.90
21759;DHT22;11041;50.854;20.580;2023-04-15T01:59:11;10.80;99.90
21759;DHT22;11041;50.854;20.580;2023-04-15T02:01:38;10.90;99.90
21759;DHT22;11041;50.854;20.580;2023-04-15T02:04:05;10.90;99.90
21759;DHT22;11041;50.854;20.580;2023-04-15T02:06:32;10.90;99.90
21759;DHT22;11041;50.854;20.580;2023-04-15T02:08:59;10.90;99.90
21759;DHT22;11041;50.854;20.580;2023-04-15T02:11:25;10.90;99.90
21759;DHT22;11041;50.854;20.580;2023-04-15T02:13:51;10.80;99.90
21759;DHT22;11041;50.854;20.580;2023-04-15T02:16:18;10.80;99.90
21759;DHT22;11041;50.854;20.580;2023-04-15T02:18:45;10.80;99.90
21759;DHT22;11041;50.854;20.580;2023-04-15T02:21:13;10.80;99.90
21759;DHT22;11041;50.854;20.580;2023-04-15T02:23:39;10.80;99.90
21759;DHT22;11041;50.854;20.580;2023-04-15T02:26:06;10.80;99.90
21759;DHT22;11041;50.854;20.580;2023-04-15T02:28:32;10.80;99.90
21759;DHT22;11041;50.854;20.580;2023-04-15T02:30:59;10.80;99.90
21759;DHT22;11041;50.854;20.580;2023-04-15T02:33:27;10.80;99.90
21759;DHT22;11041;50.854;20.580;2023-04-15T02:35:53;10.80;99.90
21759;DHT22;11041;50.854;20.580;2023-04-15T02:38:19;10.80;99.90
21759;DHT22;11041;50.854;20.580;2023-04-15T02:40:46;10.80;99.90
21759;DHT22;11041;50.854;20.580;2023-04-15T02:43:14;10.80;99.90
21759;DHT22;11041;50.854;20.580;2023-04-15T02:45:42;10.80;99.90
21759;DHT22;11041;50.854;20.580;2023-04-15T02:48:10;10.70;99.90
21759;DHT22;11041;50.854;20.580;2023-04-15T02:50:37;10.80;99.90
21759;DHT22;11041;50.854;20.580;2023-04-15T02:53:06;10.70;99.90
21759;DHT22;11041;50.854;20.580;2023-04-15T02:55:33;10.70;99.90
21759;DHT22;11041;50.854;20.580;2023-04-15T02:57:59;10.70;99.90
21759;DHT22;11041;50.854;20.580;2023-04-15T03:00:26;10.70;99.90
21759;DHT22;11041;50.854;20.580;2023-04-15T03:03:01;10.70;99.90
21759;DHT22;11041;50.854;20.580;2023-04-15T03:05:29;10.70;99.90
21759;DHT22;11041;50.854;20.580;2023-04-15T03:07:56;10.70;99.90
21759;DHT22;11041;50.854;20.580;2023-04-15T03:10:23;10.70;99.90
21759;DHT22;11041;50.854;20.580;2023-04-15T03:12:49;10.70;99.90
21759;DHT22;11041;50.854;20.580;2023-04-15T03:15:16;10.70;99.90
21759;DHT22;11041;50.854;20.580;2023-04-15T03:17:42;10.80;99.90
21759;DHT22;11041;50.854;20.580;2023-04-15T03:20:09;10.70;99.90
21759;DHT22;11041;50.854;20.580;2023-04-15T03:22:36;10.70;99.90
21759;DHT22;11041;50.854;20.580;2023-04-15T03:25:02;10.70;99.90
21759;DHT22;11041;50.854;20.580;2023-04-15T03:27:29;10.70;99.90
21759;DHT22;11041;50.854;20.580;2023-04-15T03:29:56;10.70;99.90
21759;DHT22;11041;50.854;20.580;2023-04-15T03:32:23;10.60;99.90
21759;DHT22;11041;50.854;20.580;2023-04-15T03:34:49;10.60;99.90
21759;DHT22;11041;50.854;20.580;2023-04-15T03:37:16;10.60;99.90
21759;DHT22;11041;50.854;20.580;2023-04-15T03:39:42;10.60;99.90
21759;DHT22;11041;50.854;20.580;2023-04-15T03:42:08;10.60;99.90
21759;DHT22;11041;50.854;20.580;2023-04-15T03:44:36;10.60;99.90
21759;DHT22;11041;50.854;20.580;2023-04-15T03:47:03;10.60;99.90
21759;DHT22;11041;50.854;20.580;2023-04-15T03:49:29;10.70;99.90
21759;DHT22;11041;50.854;20.580;2023-04-15T03:51:56;10.60;99.90
21759;DHT22;11041;50.854;20.580;2023-04-15T03:54:22;10.60;99.90
21759;DHT22;11041;50.854;20.580;2023-04-15T03:56:49;10.60;99.90
21759;DHT22;11041;50.854;20.580;2023-04-15T03:59:15;10.60;99.90
21759;DHT22;11041;50.854;20.580;2023-04-15T04:01:42;10.60;99.90
21759;DHT22;11041;50.854;20.580;2023-04-15T04:04:08;10.60;99.90
21759;DHT22;11041;50.854;20.580;2023-04-15T04:06:35;10.60;99.90
21759;DHT22;11041;50.854;20.580;2023-04-15T04:09:02;10.50;99.90
21759;DHT22;11041;50.854;20.580;2023-04-15T04:11:28;10.50;99.90
21759;DHT22;11041;50.854;20.580;2023-04-15T04:13:55;10.60;99.90
21759;DHT22;11041;50.854;20.580;2023-04-15T04:16:21;10.50;99.90
21759;DHT22;11041;50.854;20.580;2023-04-15T04:18:48;10.50;99.90
21759;DHT22;11041;50.854;20.580;2023-04-15T04:21:14;10.50;99.90
21759;DHT22;11041;50.854;20.580;2023-04-15T04:23:42;10.50;99.90
21759;DHT22;11041;50.854;20.580;2023-04-15T04:26:08;10.50;99.90
21759;DHT22;11041;50.854;20.580;2023-04-15T04:28:35;10.50;99.90
21759;DHT22;11041;50.854;20.580;2023-04-15T04:31:01;10.50;99.90
21759;DHT22;11041;50.854;20.580;2023-04-15T04:33:28;10.50;99.90
21759;DHT22;11041;50.854;20.580;2023-04-15T04:35:54;10.50;99.90
21759;DHT22;11041;50.854;20.580;2023-04-15T04:38:21;10.50;99.90
21759;DHT22;11041;50.854;20.580;2023-04-15T04:40:47;10.50;99.90
21759;DHT22;11041;50.854;20.580;2023-04-15T04:43:14;10.50;99.90
21759;DHT22;11041;50.854;20.580;2023-04-15T04:45:41;10.50;99.90
21759;DHT22;11041;50.854;20.580;2023-04-15T04:48:07;10.50;99.90
21759;DHT22;11041;50.854;20.580;2023-04-15T04:50:35;10.50;99.90
21759;DHT22;11041;50.854;20.580;2023-04-15T04:53:02;10.50;99.90
21759;DHT22;11041;50.854;20.580;2023-04-15T04:55:28;10.50;99.90
21759;DHT22;11041;50.854;20.580;2023-04-15T04:57:57;10.50;99.90
21759;DHT22;11041;50.854;20.580;2023-04-15T05:00:23;10.50;99.90
21759;DHT22;11041;50.854;20.580;2023-04-15T05:02:50;10.50;99.90
21759;DHT22;11041;50.854;20.580;2023-04-15T05:05:16;10.60;99.90
21759;DHT22;11041;50.854;20.580;2023-04-15T05:07:43;10.60;99.90
21759;DHT22;11041;50.854;20.580;2023-04-15T05:10:09;10.50;99.90
21759;DHT22;11041;50.854;20.580;2023-04-15T05:12:36;10.50;99.90
21759;DHT22;11041;50.854;20.580;2023-04-15T05:15:05;10.60;99.90
21759;DHT22;11041;50.854;20.580;2023-04-15T05:17:32;10.60;99.90
21759;DHT22;11041;50.854;20.580;2023-04-15T05:20:00;10.50;99.90
21759;DHT22;11041;50.854;20.580;2023-04-15T05:22:29;10.60;99.90
21759;DHT22;11041;50.854;20.580;2023-04-15T05:24:55;10.60;99.90
21759;DHT22;11041;50.854;20.580;2023-04-15T05:27:22;10.60;99.90
21759;DHT22;11041;50.854;20.580;2023-04-15T05:29:48;10.60;99.90
21759;DHT22;11041;50.854;20.580;2023-04-15T05:32:20;10.50;99.90
21759;DHT22;11041;50.854;20.580;2023-04-15T05:34:49;10.60;99.90
21759;DHT22;11041;50.854;20.580;2023-04-15T05:37:24;10.60;99.90
21759;DHT22;11041;50.854;20.580;2023-04-15T05:40:09;10.60;99.90
21759;DHT22;11041;50.854;20.580;2023-04-15T05:42:46;10.60;99.90
21759;DHT22;11041;50.854;20.580;2023-04-15T05:45:40;10.60;99.90
21759;DHT22;11041;50.854;20.580;2023-04-15T05:48:29;10.60;99.90
21759;DHT22;11041;50.854;20.580;2023-04-15T05:50:56;10.60;99.90
21759;DHT22;11041;50.854;20.580;2023-04-15T05:53:22;10.60;99.90
21759;DHT22;11041;50.854;20.580;2023-04-15T05:55:49;10.70;99.90
21759;DHT22;11041;50.854;20.580;2023-04-15T05:58:16;10.70;99.90
21759;DHT22;11041;50.854;20.580;2023-04-15T06:00:42;10.70;99.90
21759;DHT22;11041;50.854;20.580;2023-04-15T06:03:10;10.70;99.90
21759;DHT22;11041;50.854;20.580;2023-04-15T06:05:36;10.80;99.90
21759;DHT22;11041;50.854;20.580;2023-04-15T06:08:04;10.80;99.90
21759;DHT22;11041;50.854;20.580;2023-04-15T06:10:30;10.90;99.90
21759;DHT22;11041;50.854;20.580;2023-04-15T06:13:04;10.90;99.90
21759;DHT22;11041;50.854;20.580;2023-04-15T06:15:30;10.90;99.90
21759;DHT22;11041;50.854;20.580;2023-04-15T06:17:57;10.80;99.90
21759;DHT22;11041;50.854;20.580;2023-04-15T06:20:24;10.80;99.90
21759;DHT22;11041;50.854;20.580;2023-04-15T06:22:51;10.90;99.90
21759;DHT22;11041;50.854;20.580;2023-04-15T06:25:18;10.90;99.90
21759;DHT22;11041;50.854;20.580;2023-04-15T06:27:45;10.80;99.90
21759;DHT22;11041;50.854;20.580;2023-04-15T06:30:11;10.80;99.90
21759;DHT22;11041;50.854;20.580;2023-04-15T06:32:39;10.70;99.90
21759;DHT22;11041;50.854;20.580;2023-04-15T06:35:06;10.80;99.90
21759;DHT22;11041;50.854;20.580;2023-04-15T06:37:32;10.80;99.90
21759;DHT22;11041;50.854;20.580;2023-04-15T06:39:59;10.80;99.90
21759;DHT22;11041;50.854;20.580;2023-04-15T06:42:25;10.80;99.90
21759;DHT22;11041;50.854;20.580;2023-04-15T06:44:52;10.90;99.90
21759;DHT22;11041;50.854;20.580;2023-04-15T06:47:19;10.90;99.90
21759;DHT22;11041;50.854;20.580;2023-04-15T06:49:45;10.90;99.90
21759;DHT22;11041;50.854;20.580;2023-04-15T06:52:11;11.00;99.90
21759;DHT22;11041;50.854;20.580;2023-04-15T06:54:38;11.00;99.90
21759;DHT22;11041;50.854;20.580;2023-04-15T06:57:05;11.00;99.90
21759;DHT22;11041;50.854;20.580;2023-04-15T06:59:32;11.00;99.90
21759;DHT22;11041;50.854;20.580;2023-04-15T07:01:59;11.00;99.90
21759;DHT22;11041;50.854;20.580;2023-04-15T07:04:25;11.00;99.90
21759;DHT22;11041;50.854;20.580;2023-04-15T07:06:53;11.00;99.90
21759;DHT22;11041;50.854;20.580;2023-04-15T07:09:22;11.10;99.90
21759;DHT22;11041;50.854;20.580;2023-04-15T07:11:49;11.20;99.90
21759;DHT22;11041;50.854;20.580;2023-04-15T07:14:16;11.30;99.90
21759;DHT22;11041;50.854;20.580;2023-04-15T07:16:43;11.30;99.90
21759;DHT22;11041;50.854;20.580;2023-04-15T07:19:10;11.40;99.90
21759;DHT22;11041;50.854;20.580;2023-04-15T07:21:36;11.40;99.90
21759;DHT22;11041;50.854;20.580;2023-04-15T07:24:04;11.50;99.90
21759;DHT22;11041;50.854;20.580;2023-04-15T07:26:31;11.50;99.90
21759;DHT22;11041;50.854;20.580;2023-04-15T07:28:57;11.50;99.90
21759;DHT22;11041;50.854;20.580;2023-04-15T07:31:24;11.50;99.90
21759;DHT22;11041;50.854;20.580;2023-04-15T07:33:50;11.50;99.90
21759;DHT22;11041;50.854;20.580;2023-04-15T07:36:17;11.60;99.90
21759;DHT22;11041;50.854;20.580;2023-04-15T07:38:43;11.60;99.90
21759;DHT22;11041;50.854;20.580;2023-04-15T07:41:10;11.70;99.90
21759;DHT22;11041;50.854;20.580;2023-04-15T07:43:36;11.80;99.90
21759;DHT22;11041;50.854;20.580;2023-04-15T07:46:04;11.80;99.90
21759;DHT22;11041;50.854;20.580;2023-04-15T07:48:30;11.90;99.90
21759;DHT22;11041;50.854;20.580;2023-04-15T07:50:57;12.00;99.90
21759;DHT22;11041;50.854;20.580;2023-04-15T07:53:24;12.00;99.90
21759;DHT22;11041;50.854;20.580;2023-04-15T07:55:51;12.00;99.90
21759;DHT22;11041;50.854;20.580;2023-04-15T07:58:17;12.10;99.90
21759;DHT22;11041;50.854;20.580;2023-04-15T08:00:44;12.10;99.90
21759;DHT22;11041;50.854;20.580;2023-04-15T08:03:10;12.20;99.90
21759;DHT22;11041;50.854;20.580;2023-04-15T08:05:37;12.10;99.90
21759;DHT22;11041;50.854;20.580;2023-04-15T08:08:04;12.20;99.90
21759;DHT22;11041;50.854;20.580;2023-04-15T08:10:31;12.30;99.90
21759;DHT22;11041;50.854;20.580;2023-04-15T08:12:57;12.30;99.90
21759;DHT22;11041;50.854;20.580;2023-04-15T08:15:25;12.30;99.90
21759;DHT22;11041;50.854;20.580;2023-04-15T08:17:52;12.40;99.90
21759;DHT22;11041;50.854;20.580;2023-04-15T08:20:18;12.40;99.90
21759;DHT22;11041;50.854;20.580;2023-04-15T08:22:45;12.40;99.90
21759;DHT22;11041;50.854;20.580;2023-04-15T08:25:17;12.40;99.90
21759;DHT22;11041;50.854;20.580;2023-04-15T08:27:44;12.40;99.90
21759;DHT22;11041;50.854;20.580;2023-04-15T08:30:12;12.40;99.90
21759;DHT22;11041;50.854;20.580;2023-04-15T08:32:40;12.50;99.90
21759;DHT22;11041;50.854;20.580;2023-04-15T08:35:11;12.60;99.90
21759;DHT22;11041;50.854;20.580;2023-04-15T08:37:38;12.50;99.90
21759;DHT22;11041;50.854;20.580;2023-04-15T08:40:06;12.60;99.90
21759;DHT22;11041;50.854;20.580;2023-04-15T08:42:42;12.60;99.90
21759;DHT22;11041;50.854;20.580;2023-04-15T08:45:13;12.70;99.90
21759;DHT22;11041;50.854;20.580;2023-04-15T08:47:42;12.60;99.90
21759;DHT22;11041;50.854;20.580;2023-04-15T08:50:13;12.70;99.90
21759;DHT22;11041;50.854;20.580;2023-04-15T08:52:41;12.80;99.90
21759;DHT22;11041;50.854;20.580;2023-04-15T08:55:09;12.80;99.90
21759;DHT22;11041;50.854;20.580;2023-04-15T08:57:38;12.90;99.90
21759;DHT22;11041;50.854;20.580;2023-04-15T09:00:05;12.90;99.90
21759;DHT22;11041;50.854;20.580;2023-04-15T09:02:34;13.00;99.90
21759;DHT22;11041;50.854;20.580;2023-04-15T09:05:01;13.10;99.90
21759;DHT22;11041;50.854;20.580;2023-04-15T09:07:33;13.30;99.90
21759;DHT22;11041;50.854;20.580;2023-04-15T09:10:03;13.40;99.90
21759;DHT22;11041;50.854;20.580;2023-04-15T09:12:32;13.30;99.90
21759;DHT22;11041;50.854;20.580;2023-04-15T09:15:02;13.30;99.90
21759;DHT22;11041;50.854;20.580;2023-04-15T09:17:32;13.30;99.90
21759;DHT22;11041;50.854;20.580;2023-04-15T09:20:13;13.10;99.90
21759;DHT22;11041;50.854;20.580;2023-04-15T09:22:41;13.00;99.90
21759;DHT22;11041;50.854;20.580;2023-04-15T09:27:48;13.00;99.90
21759;DHT22;11041;50.854;20.580;2023-04-15T09:30:16;13.10;99.90
21759;DHT22;11041;50.854;20.580;2023-04-15T09:32:50;13.20;99.90
21759;DHT22;11041;50.854;20.580;2023-04-15T09:35:25;13.30;99.90
21759;DHT22;11041;50.854;20.580;2023-04-15T09:38:00;13.30;99.90
21759;DHT22;11041;50.854;20.580;2023-04-15T09:40:34;13.30;99.90
21759;DHT22;11041;50.854;20.580;2023-04-15T09:43:08;13.40;99.90
21759;DHT22;11041;50.854;20.580;2023-04-15T09:45:38;13.40;99.90
21759;DHT22;11041;50.854;20.580;2023-04-15T09:50:43;13.30;99.90
21759;DHT22;11041;50.854;20.580;2023-04-15T09:53:10;13.40;99.90
21759;DHT22;11041;50.854;20.580;2023-04-15T09:55:45;13.40;99.90
21759;DHT22;11041;50.854;20.580;2023-04-15T09:58:24;13.40;99.90
21759;DHT22;11041;50.854;20.580;2023-04-15T10:00:57;13.40;99.90
21759;DHT22;11041;50.854;20.580;2023-04-15T10:03:26;13.50;99.90
21759;DHT22;11041;50.854;20.580;2023-04-15T10:05:57;13.60;99.90
21759;DHT22;11041;50.854;20.580;2023-04-15T10:08:30;13.70;99.90
21759;DHT22;11041;50.854;20.580;2023-04-15T10:11:01;13.70;99.90
21759;DHT22;11041;50.854;20.580;2023-04-15T10:13:30;13.80;99.90
21759;DHT22;11041;50.854;20.580;2023-04-15T10:16:10;13.70;99.90
21759;DHT22;11041;50.854;20.580;2023-04-15T10:18:44;13.80;99.90
21759;DHT22;11041;50.854;20.580;2023-04-15T10:21:12;13.90;99.90
21759;DHT22;11041;50.854;20.580;2023-04-15T10:23:44;13.90;99.90
21759;DHT22;11041;50.854;20.580;2023-04-15T10:26:12;14.20;99.90
21759;DHT22;11041;50.854;20.580;2023-04-15T10:28:40;14.40;99.90
21759;DHT22;11041;50.854;20.580;2023-04-15T10:31:08;14.30;99.90
21759;DHT22;11041;50.854;20.580;2023-04-15T10:33:38;14.30;99.90
21759;DHT22;11041;50.854;20.580;2023-04-15T10:36:07;14.40;99.90
21759;DHT22;11041;50.854;20.580;2023-04-15T10:38:39;14.40;99.90
21759;DHT22;11041;50.854;20.580;2023-04-15T10:41:26;14.30;99.90
21759;DHT22;11041;50.854;20.580;2023-04-15T10:44:02;14.30;99.90
21759;DHT22;11041;50.854;20.580;2023-04-15T10:46:45;14.20;99.90
21759;DHT22;11041;50.854;20.580;2023-04-15T10:49:16;14.50;99.90
21759;DHT22;11041;50.854;20.580;2023-04-15T10:51:52;14.60;99.90
21759;DHT22;11041;50.854;20.580;2023-04-15T11:02:57;14.80;99.90
21759;DHT22;11041;50.854;20.580;2023-04-15T11:05:56;15.00;99.90
21759;DHT22;11041;50.854;20.580;2023-04-15T11:09:01;14.80;99.90
21759;DHT22;11041;50.854;20.580;2023-04-15T11:14:40;14.90;99.90
21759;DHT22;11041;50.854;20.580;2023-04-15T11:17:08;14.70;99.90
21759;DHT22;11041;50.854;20.580;2023-04-15T11:19:38;14.80;99.90
21759;DHT22;11041;50.854;20.580;2023-04-15T11:22:11;14.90;99.90
21759;DHT22;11041;50.854;20.580;2023-04-15T11:24:47;14.90;99.90
21759;DHT22;11041;50.854;20.580;2023-04-15T11:27:23;15.00;99.90
21759;DHT22;11041;50.854;20.580;2023-04-15T11:29:49;15.10;99.90
21759;DHT22;11041;50.854;20.580;2023-04-15T11:32:16;15.20;99.90
21759;DHT22;11041;50.854;20.580;2023-04-15T11:34:45;15.30;99.90
21759;DHT22;11041;50.854;20.580;2023-04-15T11:37:11;15.20;99.90
21759;DHT22;11041;50.854;20.580;2023-04-15T11:39:38;15.40;99.90
21759;DHT22;11041;50.854;20.580;2023-04-15T11:42:16;15.40;99.90
21759;DHT22;11041;50.854;20.580;2023-04-15T11:44:43;15.50;99.90
21759;DHT22;11041;50.854;20.580;2023-04-15T11:47:25;15.50;99.90
21759;DHT22;11041;50.854;20.580;2023-04-15T11:49:52;15.60;99.90
21759;DHT22;11041;50.854;20.580;2023-04-15T11:52:18;15.60;99.90
21759;DHT22;11041;50.854;20.580;2023-04-15T11:54:45;15.80;99.90
21759;DHT22;11041;50.854;20.580;2023-04-15T11:57:12;15.90;99.90
21759;DHT22;11041;50.854;20.580;2023-04-15T11:59:42;15.90;99.90
21759;DHT22;11041;50.854;20.580;2023-04-15T12:02:13;15.90;99.90
21759;DHT22;11041;50.854;20.580;2023-04-15T12:04:39;15.90;99.90
21759;DHT22;11041;50.854;20.580;2023-04-15T12:07:07;15.80;99.90
21759;DHT22;11041;50.854;20.580;2023-04-15T12:09:37;15.70;99.90
21759;DHT22;11041;50.854;20.580;2023-04-15T12:12:04;15.60;99.90
21759;DHT22;11041;50.854;20.580;2023-04-15T12:14:32;15.60;99.90
21759;DHT22;11041;50.854;20.580;2023-04-15T12:17:01;15.60;99.90
21759;DHT22;11041;50.854;20.580;2023-04-15T12:19:40;15.60;99.90
21759;DHT22;11041;50.854;20.580;2023-04-15T12:22:16;15.50;99.90
21759;DHT22;11041;50.854;20.580;2023-04-15T12:24:43;15.50;99.90
21759;DHT22;11041;50.854;20.580;2023-04-15T12:27:14;15.60;99.90
21759;DHT22;11041;50.854;20.580;2023-04-15T12:29:43;15.50;99.90
21759;DHT22;11041;50.854;20.580;2023-04-15T12:32:15;15.60;99.90
21759;DHT22;11041;50.854;20.580;2023-04-15T12:34:53;15.80;99.90
21759;DHT22;11041;50.854;20.580;2023-04-15T12:37:20;16.10;99.90
21759;DHT22;11041;50.854;20.580;2023-04-15T12:39:48;16.50;99.90
21759;DHT22;11041;50.854;20.580;2023-04-15T12:42:16;16.70;99.90
21759;DHT22;11041;50.854;20.580;2023-04-15T12:44:43;17.20;99.90
21759;DHT22;11041;50.854;20.580;2023-04-15T12:47:10;17.20;99.60
21759;DHT22;11041;50.854;20.580;2023-04-15T12:49:38;17.00;96.50
21759;DHT22;11041;50.854;20.580;2023-04-15T12:52:06;17.00;98.00
21759;DHT22;11041;50.854;20.580;2023-04-15T12:54:33;17.30;97.50
21759;DHT22;11041;50.854;20.580;2023-04-15T12:57:01;17.10;99.30
21759;DHT22;11041;50.854;20.580;2023-04-15T12:59:28;17.10;97.40
21759;DHT22;11041;50.854;20.580;2023-04-15T13:01:55;17.20;95.60
21759;DHT22;11041;50.854;20.580;2023-04-15T13:04:22;17.60;95.20
21759;DHT22;11041;50.854;20.580;2023-04-15T13:06:49;17.70;94.80
21759;DHT22;11041;50.854;20.580;2023-04-15T13:09:16;17.90;94.00
21759;DHT22;11041;50.854;20.580;2023-04-15T13:11:42;18.00;94.80
21759;DHT22;11041;50.854;20.580;2023-04-15T13:14:10;18.00;93.60
21759;DHT22;11041;50.854;20.580;2023-04-15T13:16:40;17.60;92.80
21759;DHT22;11041;50.854;20.580;2023-04-15T13:19:07;17.40;92.10
21759;DHT22;11041;50.854;20.580;2023-04-15T13:21:33;17.80;91.20
21759;DHT22;11041;50.854;20.580;2023-04-15T13:24:00;17.90;92.00
21759;DHT22;11041;50.854;20.580;2023-04-15T13:26:27;18.00;91.40
21759;DHT22;11041;50.854;20.580;2023-04-15T13:28:54;17.50;91.70
21759;DHT22;11041;50.854;20.580;2023-04-15T13:31:21;17.30;90.60
21759;DHT22;11041;50.854;20.580;2023-04-15T13:33:47;17.30;91.70
21759;DHT22;11041;50.854;20.580;2023-04-15T13:36:14;17.40;90.30
21759;DHT22;11041;50.854;20.580;2023-04-15T13:38:41;17.60;91.30
21759;DHT22;11041;50.854;20.580;2023-04-15T13:41:07;17.80;90.40
21759;DHT22;11041;50.854;20.580;2023-04-15T13:43:34;18.10;90.40
21759;DHT22;11041;50.854;20.580;2023-04-15T13:46:00;18.40;88.60
21759;DHT22;11041;50.854;20.580;2023-04-15T13:48:27;18.60;90.30
21759;DHT22;11041;50.854;20.580;2023-04-15T13:50:54;18.90;89.20
21759;DHT22;11041;50.854;20.580;2023-04-15T13:53:21;18.90;90.50
21759;DHT22;11041;50.854;20.580;2023-04-15T13:55:47;18.40;92.30
21759;DHT22;11041;50.854;20.580;2023-04-15T13:58:14;17.70;93.50
21759;DHT22;11041;50.854;20.580;2023-04-15T14:00:41;17.50;94.90
21759;DHT22;11041;50.854;20.580;2023-04-15T14:03:07;17.00;94.40
21759;DHT22;11041;50.854;20.580;2023-04-15T14:05:36;16.80;94.30
21759;DHT22;11041;50.854;20.580;2023-04-15T14:08:09;17.00;95.20
21759;DHT22;11041;50.854;20.580;2023-04-15T14:10:36;16.90;94.00
21759;DHT22;11041;50.854;20.580;2023-04-15T14:13:03;16.70;94.00
21759;DHT22;11041;50.854;20.580;2023-04-15T14:15:30;16.50;94.40
21759;DHT22;11041;50.854;20.580;2023-04-15T14:17:57;16.60;95.20
21759;DHT22;11041;50.854;20.580;2023-04-15T14:20:23;16.50;95.60
21759;DHT22;11041;50.854;20.580;2023-04-15T14:22:50;16.70;95.90
21759;DHT22;11041;50.854;20.580;2023-04-15T14:25:16;16.60;94.60
21759;DHT22;11041;50.854;20.580;2023-04-15T14:27:45;16.70;95.40
21759;DHT22;11041;50.854;20.580;2023-04-15T14:30:14;16.30;95.80
21759;DHT22;11041;50.854;20.580;2023-04-15T14:32:41;16.50;97.40
21759;DHT22;11041;50.854;20.580;2023-04-15T14:35:07;16.50;96.20
21759;DHT22;11041;50.854;20.580;2023-04-15T14:37:34;16.30;96.30
21759;DHT22;11041;50.854;20.580;2023-04-15T14:40:01;16.20;96.80
21759;DHT22;11041;50.854;20.580;2023-04-15T14:42:27;16.20;96.20
21759;DHT22;11041;50.854;20.580;2023-04-15T14:44:53;16.10;96.30
21759;DHT22;11041;50.854;20.580;2023-04-15T14:47:20;16.20;95.20
21759;DHT22;11041;50.854;20.580;2023-04-15T14:49:46;16.40;94.50
21759;DHT22;11041;50.854;20.580;2023-04-15T14:52:13;16.70;94.20
21759;DHT22;11041;50.854;20.580;2023-04-15T14:54:39;17.10;93.90
21759;DHT22;11041;50.854;20.580;2023-04-15T14:57:06;17.30;93.70
21759;DHT22;11041;50.854;20.580;2023-04-15T14:59:33;17.50;92.60
21759;DHT22;11041;50.854;20.580;2023-04-15T15:02:03;17.70;93.10
21759;DHT22;11041;50.854;20.580;2023-04-15T15:04:33;17.80;92.50
21759;DHT22;11041;50.854;20.580;2023-04-15T15:07:02;17.50;92.00
21759;DHT22;11041;50.854;20.580;2023-04-15T15:09:28;17.50;91.90
21759;DHT22;11041;50.854;20.580;2023-04-15T15:11:55;17.60;92.20
21759;DHT22;11041;50.854;20.580;2023-04-15T15:14:22;17.60;91.10
21759;DHT22;11041;50.854;20.580;2023-04-15T15:16:50;17.80;92.00
21759;DHT22;11041;50.854;20.580;2023-04-15T15:19:17;17.80;91.90
21759;DHT22;11041;50.854;20.580;2023-04-15T15:21:44;17.60;91.00
21759;DHT22;11041;50.854;20.580;2023-04-15T15:24:11;17.50;92.30
21759;DHT22;11041;50.854;20.580;2023-04-15T15:26:37;17.30;92.10
21759;DHT22;11041;50.854;20.580;2023-04-15T15:29:06;17.40;92.80
21759;DHT22;11041;50.854;20.580;2023-04-15T15:31:34;17.50;93.30
21759;DHT22;11041;50.854;20.580;2023-04-15T15:34:00;17.50;93.60
21759;DHT22;11041;50.854;20.580;2023-04-15T15:36:29;17.30;93.10
21759;DHT22;11041;50.854;20.580;2023-04-15T15:38:59;17.40;93.80